Time;durP1;ratioP1;P1;durP2;ratioP2;P2;SDS_P1;SDS_P2;PMS_P1;PMS_P2;Temp;Humidity;BMP_temperature;BMP_pressure;BME280_temperature;BME280_humidity;BME280_pressure;Samples;Min_cycle;Max_cycle;Signal;HPM_P1;HPM_P2
2023/11/01 00:02:19;;;;;;;2.50;0.90;;;;;;;11.34;82.53;95018.23;107085;1272;22541;-80
2023/11/01 00:04:47;;;;;;;3.70;1.00;;;;;;;11.34;83.49;95015.06;107031;1272;24292;-79
2023/11/01 00:07:16;;;;;;;1.70;1.10;;;;;;;11.30;83.51;95005.70;106925;1272;25371;-80
2023/11/01 00:09:44;;;;;;;1.00;0.70;;;;;;;11.27;83.59;95012.11;106899;1273;26739;-80
2023/11/01 00:12:12;;;;;;;5.10;1.00;;;;;;;11.29;84.06;95026.51;106981;1272;24276;-80
2023/11/01 00:14:40;;;;;;;3.30;1.00;;;;;;;11.30;84.68;95029.30;107050;1273;25418;-80
2023/11/01 00:17:08;;;;;;;2.10;1.00;;;;;;;11.34;84.87;95030.38;107006;1273;22644;-80
2023/11/01 00:19:36;;;;;;;1.60;1.00;;;;;;;11.41;84.77;95029.11;106981;1273;24402;-80
2023/11/01 00:22:04;;;;;;;4.20;1.10;;;;;;;11.46;84.92;95031.09;107169;1273;22506;-80
2023/11/01 00:24:33;;;;;;;2.00;1.00;;;;;;;11.50;84.68;95030.96;107151;1272;22630;-81
2023/11/01 00:27:01;;;;;;;2.20;1.10;;;;;;;11.52;84.58;95032.30;106976;1266;24225;-81
2023/11/01 00:29:29;;;;;;;2.70;1.40;;;;;;;11.52;84.81;95042.34;107015;1272;22629;-81
2023/11/01 00:31:57;;;;;;;2.10;1.20;;;;;;;11.52;84.83;95039.70;107079;1272;26614;-82
2023/11/01 00:34:25;;;;;;;1.50;1.10;;;;;;;11.52;85.07;95038.66;106861;1272;25368;-81
2023/11/01 00:36:54;;;;;;;2.80;1.10;;;;;;;11.48;85.07;95036.09;107100;1272;22502;-81
2023/11/01 00:39:23;;;;;;;2.10;1.00;;;;;;;11.50;85.18;95034.31;107064;1272;22633;-82
2023/11/01 00:41:51;;;;;;;2.10;1.10;;;;;;;11.48;85.18;95033.65;106973;1272;22521;-82
2023/11/01 00:44:19;;;;;;;2.50;1.20;;;;;;;11.51;85.55;95027.77;107130;1273;25415;-82
2023/11/01 00:46:47;;;;;;;4.10;1.10;;;;;;;11.54;85.67;95031.17;107078;1272;22510;-80
2023/11/01 00:49:15;;;;;;;3.80;1.20;;;;;;;11.52;85.41;95033.00;106934;1273;22518;-79
2023/11/01 00:51:43;;;;;;;2.00;1.00;;;;;;;11.49;85.25;95035.91;106864;1272;22552;-80
2023/11/01 00:54:12;;;;;;;2.30;1.00;;;;;;;11.54;85.79;95036.83;107006;1273;24436;-80
2023/11/01 00:56:40;;;;;;;5.30;1.40;;;;;;;11.58;85.93;95040.39;107004;1273;22517;-80
2023/11/01 00:59:08;;;;;;;3.00;0.90;;;;;;;11.51;85.44;95045.19;106822;1272;25287;-79
2023/11/01 01:01:36;;;;;;;2.00;0.90;;;;;;;11.42;85.39;95044.92;106777;1272;24279;-79
2023/11/01 01:04:05;;;;;;;3.10;1.20;;;;;;;11.33;85.74;95037.12;107012;1273;25412;-80
2023/11/01 01:06:33;;;;;;;1.20;1.00;;;;;;;11.33;85.78;95035.00;106947;1273;24244;-79
2023/11/01 01:09:01;;;;;;;4.30;1.30;;;;;;;11.32;85.77;95031.88;106965;1272;22632;-79
2023/11/01 01:11:30;;;;;;;1.50;1.00;;;;;;;11.31;85.73;95022.39;107031;1273;24278;-79
2023/11/01 01:13:58;;;;;;;2.10;1.20;;;;;;;11.27;85.57;95017.40;106798;1272;24281;-79
2023/11/01 01:16:26;;;;;;;3.90;1.20;;;;;;;11.23;85.73;95017.52;106968;1273;22516;-79
2023/11/01 01:18:54;;;;;;;2.00;1.10;;;;;;;11.24;85.92;95015.91;107024;1273;25702;-79
2023/11/01 01:21:22;;;;;;;2.10;1.00;;;;;;;11.26;85.74;95014.60;106948;1272;22525;-79
2023/11/01 01:23:50;;;;;;;1.30;1.00;;;;;;;11.25;85.43;95012.87;106829;1272;25302;-79
2023/11/01 01:26:19;;;;;;;1.20;0.80;;;;;;;11.20;85.39;95008.96;106997;1273;22516;-79
2023/11/01 01:28:47;;;;;;;2.70;1.00;;;;;;;11.19;85.67;95005.13;106970;1273;24275;-79
2023/11/01 01:31:15;;;;;;;1.50;1.10;;;;;;;11.18;85.67;94996.00;106974;1272;25383;-79
2023/11/01 01:33:44;;;;;;;2.40;0.90;;;;;;;11.17;85.57;94990.59;106866;1273;24390;-79
2023/11/01 01:36:13;;;;;;;1.20;1.10;;;;;;;11.10;85.25;94988.15;107083;1272;22514;-79
2023/11/01 01:38:41;;;;;;;1.00;1.00;;;;;;;11.01;85.34;94983.30;106848;1273;22528;-79
2023/11/01 01:41:09;;;;;;;2.00;1.00;;;;;;;10.90;85.07;94985.05;106946;1273;25289;-79
2023/11/01 01:43:37;;;;;;;1.60;1.10;;;;;;;10.81;85.44;94985.68;106982;1272;22513;-79
2023/11/01 01:46:16;;;;;;;2.30;1.20;;;;;;;10.75;85.72;94989.90;107009;1272;22629;-78
2023/11/01 01:48:46;;;;;;;2.70;2.30;;;;;;;10.69;86.07;94990.79;106954;1273;22517;-79
2023/11/01 01:51:15;;;;;;;2.70;1.30;;;;;;;10.63;86.51;94994.09;106935;1272;22523;-82
2023/11/01 01:53:48;;;;;;;1.70;0.80;;;;;;;10.55;86.40;94996.81;106890;1273;22918;-83
2023/11/01 01:56:18;;;;;;;2.20;0.70;;;;;;;10.52;86.38;94994.41;106829;1273;22881;-81
2023/11/01 01:58:46;;;;;;;2.20;0.60;;;;;;;10.56;86.27;94991.67;106869;1273;25236;-81
2023/11/01 02:01:15;;;;;;;0.70;0.50;;;;;;;10.59;86.05;94989.48;106900;1272;22556;-81
2023/11/01 02:03:43;;;;;;;1.30;0.80;;;;;;;10.63;85.90;94988.32;106769;1272;24269;-81
2023/11/01 02:06:11;;;;;;;1.70;0.70;;;;;;;10.63;86.04;94984.80;106995;1272;22518;-82
2023/11/01 02:08:39;;;;;;;1.30;0.70;;;;;;;10.64;86.31;94988.13;107099;1273;22517;-82
2023/11/01 02:11:07;;;;;;;1.60;0.90;;;;;;;10.65;86.38;94987.38;107000;1272;25214;-82
2023/11/01 02:13:36;;;;;;;0.50;0.50;;;;;;;10.63;86.68;94988.13;107020;1272;22519;-82
2023/11/01 02:16:04;;;;;;;3.00;0.60;;;;;;;10.64;86.62;94988.64;106903;1273;25264;-81
2023/11/01 02:18:32;;;;;;;1.70;0.50;;;;;;;10.64;86.79;94985.65;107002;1273;24250;-81
2023/11/01 02:21:04;;;;;;;0.50;0.50;;;;;;;10.63;86.99;94982.88;107036;1272;25039;-81
2023/11/01 02:23:34;;;;;;;2.10;0.50;;;;;;;10.67;87.28;94997.34;106928;1273;25475;-82
2023/11/01 02:26:02;;;;;;;0.90;0.40;;;;;;;10.68;86.79;95000.48;106909;1273;22520;-82
2023/11/01 02:28:31;;;;;;;0.40;0.40;;;;;;;10.65;86.90;95007.96;106718;1273;22595;-79
2023/11/01 02:30:59;;;;;;;0.70;0.30;;;;;;;10.59;86.54;95007.42;106821;1273;24231;-80
2023/11/01 02:33:27;;;;;;;0.80;0.40;;;;;;;10.59;85.59;95007.57;107080;1273;23881;-80
2023/11/01 02:35:55;;;;;;;1.20;0.50;;;;;;;10.60;84.68;95010.38;107097;1272;22539;-81
2023/11/01 02:38:23;;;;;;;1.10;0.50;;;;;;;10.60;84.11;95008.27;107075;1273;22649;-81
2023/11/01 02:40:52;;;;;;;0.80;0.60;;;;;;;10.58;83.53;95006.02;106809;1272;24054;-80
2023/11/01 02:43:20;;;;;;;1.60;0.80;;;;;;;10.57;83.89;95009.22;107051;1273;22517;-80
2023/11/01 02:45:48;;;;;;;3.40;0.80;;;;;;;10.60;83.99;95011.77;107036;1272;24244;-80
2023/11/01 02:48:16;;;;;;;1.20;0.60;;;;;;;10.59;83.77;95017.98;106925;1273;25365;-82
2023/11/01 02:50:44;;;;;;;2.60;0.60;;;;;;;10.55;82.50;95019.15;106827;1273;25013;-81
2023/11/01 02:53:12;;;;;;;0.80;0.50;;;;;;;10.49;81.85;95025.12;107028;1263;22515;-81
2023/11/01 02:55:41;;;;;;;2.10;0.90;;;;;;;10.44;81.10;95028.92;107006;1272;22607;-80
2023/11/01 02:58:09;;;;;;;1.30;0.60;;;;;;;10.40;82.28;95034.11;107116;1273;24368;-79
2023/11/01 03:00:37;;;;;;;1.80;0.70;;;;;;;10.36;82.49;95039.85;107145;1273;25411;-81
2023/11/01 03:03:06;;;;;;;0.70;0.70;;;;;;;10.30;82.54;95043.71;107119;1272;22595;-82
2023/11/01 03:05:34;;;;;;;2.80;0.80;;;;;;;10.20;81.66;95046.94;106712;1273;25275;-81
2023/11/01 03:08:03;;;;;;;1.40;0.90;;;;;;;10.14;80.74;95052.02;106861;1272;22627;-81
2023/11/01 03:10:31;;;;;;;0.70;0.60;;;;;;;10.12;80.81;95061.20;106982;1270;22533;-80
2023/11/01 03:12:59;;;;;;;1.20;0.80;;;;;;;10.09;80.31;95062.52;107010;1273;22639;-80
2023/11/01 03:15:27;;;;;;;1.00;0.70;;;;;;;10.08;80.98;95065.70;107047;1273;24703;-83
2023/11/01 03:17:55;;;;;;;1.00;0.80;;;;;;;10.07;80.03;95064.14;107098;1273;25455;-81
2023/11/01 03:20:24;;;;;;;0.70;0.70;;;;;;;10.06;79.97;95059.79;106890;1273;22532;-79
2023/11/01 03:22:52;;;;;;;1.70;0.80;;;;;;;10.02;78.56;95047.03;107102;1273;22520;-81
2023/11/01 03:25:20;;;;;;;2.40;0.70;;;;;;;10.05;79.75;95048.02;107077;1272;22527;-80
2023/11/01 03:27:48;;;;;;;0.90;0.70;;;;;;;10.03;79.33;95047.20;106845;1273;22632;-80
2023/11/01 03:30:16;;;;;;;1.20;0.80;;;;;;;9.97;78.26;95046.98;106830;1272;22516;-81
2023/11/01 03:32:44;;;;;;;1.80;0.80;;;;;;;9.96;77.55;95053.33;106908;1273;22593;-81
2023/11/01 03:35:13;;;;;;;1.00;0.60;;;;;;;9.84;77.41;95058.92;106961;1273;22645;-81
2023/11/01 03:37:41;;;;;;;0.70;0.70;;;;;;;9.74;77.42;95069.16;106995;1272;24397;-80
2023/11/01 03:40:09;;;;;;;0.90;0.80;;;;;;;9.67;77.68;95068.45;107105;1273;23953;-80
2023/11/01 03:42:37;;;;;;;1.80;0.60;;;;;;;9.56;77.31;95070.98;107028;1263;25350;-80
2023/11/01 03:45:06;;;;;;;1.00;0.80;;;;;;;9.46;77.50;95074.20;107118;1272;22519;-81
2023/11/01 03:47:34;;;;;;;1.10;0.80;;;;;;;9.43;77.81;95084.79;107056;1272;25318;-80
2023/11/01 03:50:03;;;;;;;0.60;0.60;;;;;;;9.41;77.77;95086.41;106774;1273;22784;-79
2023/11/01 03:52:31;;;;;;;1.50;0.90;;;;;;;9.41;77.95;95087.11;106983;1273;22533;-80
2023/11/01 03:54:59;;;;;;;1.40;0.60;;;;;;;9.43;78.37;95087.77;106908;1273;22779;-80
2023/11/01 03:57:27;;;;;;;1.00;0.90;;;;;;;9.42;78.15;95090.80;107091;1273;25287;-80
2023/11/01 03:59:56;;;;;;;0.80;0.60;;;;;;;9.41;78.42;95089.08;107014;1273;24215;-80
2023/11/01 04:02:24;;;;;;;2.00;0.60;;;;;;;9.36;78.78;95096.54;106803;1273;218520;-81
2023/11/01 04:04:53;;;;;;;0.80;0.80;;;;;;;9.28;78.72;95095.31;106947;1273;25388;-81
2023/11/01 04:07:21;;;;;;;0.70;0.60;;;;;;;9.24;78.78;95100.66;106990;1273;22644;-81
2023/11/01 04:09:49;;;;;;;1.90;0.90;;;;;;;9.18;76.41;95092.53;106922;1273;24374;-80
2023/11/01 04:12:18;;;;;;;0.90;0.80;;;;;;;9.15;77.61;95096.65;106908;1273;22514;-80
2023/11/01 04:14:46;;;;;;;1.30;1.20;;;;;;;9.08;78.33;95097.31;106980;1251;25459;-80
2023/11/01 04:17:14;;;;;;;1.30;1.00;;;;;;;8.94;77.35;95091.98;107083;1273;22636;-80
2023/11/01 04:19:42;;;;;;;1.10;0.90;;;;;;;8.85;76.61;95083.39;107123;1273;24265;-80
2023/11/01 04:22:10;;;;;;;1.10;0.90;;;;;;;8.76;76.28;95081.98;107212;1273;23057;-82
2023/11/01 04:24:38;;;;;;;1.60;1.30;;;;;;;8.71;76.08;95074.19;107159;1273;22536;-79
2023/11/01 04:27:07;;;;;;;1.90;1.20;;;;;;;8.67;75.72;95073.92;107137;1273;24364;-81
2023/11/01 04:29:35;;;;;;;1.50;1.40;;;;;;;8.65;75.80;95068.70;106803;1273;25408;-81
2023/11/01 04:32:03;;;;;;;2.50;1.30;;;;;;;8.62;75.70;95062.98;106924;1273;22628;-79
2023/11/01 04:34:33;;;;;;;1.00;0.90;;;;;;;8.59;76.03;95057.07;106983;1273;22548;-82
2023/11/01 04:37:01;;;;;;;1.90;0.90;;;;;;;8.58;75.81;95050.08;107238;1273;22521;-79
2023/11/01 04:39:29;;;;;;;1.30;1.20;;;;;;;8.58;75.87;95047.81;107070;1273;23002;-81
2023/11/01 04:41:57;;;;;;;1.30;1.20;;;;;;;8.58;75.61;95040.96;107238;1273;22633;-80
2023/11/01 04:44:26;;;;;;;1.40;1.10;;;;;;;8.59;75.47;95050.77;107164;1273;25323;-81
2023/11/01 04:46:54;;;;;;;1.20;1.00;;;;;;;8.59;75.21;95053.41;107175;1273;22507;-80
2023/11/01 04:49:22;;;;;;;1.10;1.00;;;;;;;8.56;75.23;95054.35;107242;1272;22618;-81
2023/11/01 04:51:50;;;;;;;2.00;0.90;;;;;;;8.54;75.05;95066.13;107211;1272;22623;-80
2023/11/01 04:54:18;;;;;;;1.30;1.20;;;;;;;8.50;75.13;95075.30;107217;1272;22521;-80
2023/11/01 04:56:46;;;;;;;1.20;1.10;;;;;;;8.50;75.53;95078.64;107097;1272;22517;-79
2023/11/01 04:59:14;;;;;;;1.40;1.00;;;;;;;8.47;75.56;95072.39;107061;1273;22523;-80
2023/11/01 05:01:42;;;;;;;1.40;1.10;;;;;;;8.45;75.22;95082.59;107051;1272;24267;-79
2023/11/01 05:04:10;;;;;;;1.50;1.20;;;;;;;8.45;75.30;95085.91;107209;1272;24314;-80
2023/11/01 05:06:39;;;;;;;1.80;1.60;;;;;;;8.43;75.41;95089.27;107095;1272;24464;-81
2023/11/01 05:09:07;;;;;;;1.50;1.40;;;;;;;8.42;75.83;95094.20;107248;1273;22549;-82
2023/11/01 05:11:35;;;;;;;2.00;1.80;;;;;;;8.42;76.08;95096.30;107172;1273;25412;-82
2023/11/01 05:14:03;;;;;;;1.40;1.30;;;;;;;8.41;76.15;95091.23;106946;1273;25243;-80
2023/11/01 05:16:32;;;;;;;1.90;1.20;;;;;;;8.38;76.29;95092.84;107153;1273;24187;-79
2023/11/01 05:19:00;;;;;;;3.00;1.60;;;;;;;8.34;76.89;95101.15;107209;1272;22780;-81
2023/11/01 05:21:28;;;;;;;2.50;1.80;;;;;;;8.28;77.40;95116.85;107202;1272;22582;-82
2023/11/01 05:23:56;;;;;;;1.80;1.30;;;;;;;8.23;77.32;95132.70;107262;1273;22524;-81
2023/11/01 05:26:24;;;;;;;3.00;1.50;;;;;;;8.21;77.70;95142.38;107201;1273;22625;-79
2023/11/01 05:28:52;;;;;;;1.70;1.60;;;;;;;8.18;77.77;95154.52;107264;1270;22524;-80
2023/11/01 05:31:20;;;;;;;3.70;2.00;;;;;;;8.15;77.94;95161.75;107164;1272;22514;-79
2023/11/01 05:33:50;;;;;;;2.30;1.70;;;;;;;8.18;78.13;95163.61;107272;1273;23123;-81
2023/11/01 05:36:19;;;;;;;1.30;1.20;;;;;;;8.23;78.04;95163.19;107116;1264;22536;-79
2023/11/01 05:38:47;;;;;;;3.00;1.80;;;;;;;8.25;78.03;95167.89;107115;1273;22922;-79
2023/11/01 05:41:15;;;;;;;2.70;1.80;;;;;;;8.28;77.99;95173.28;106735;1273;24553;-80
2023/11/01 05:43:44;;;;;;;1.60;1.50;;;;;;;8.31;78.12;95174.29;106840;1273;25339;-80
2023/11/01 05:46:12;;;;;;;1.80;1.60;;;;;;;8.31;78.45;95188.48;106865;1272;22517;-80
2023/11/01 05:48:40;;;;;;;1.90;1.70;;;;;;;8.32;78.27;95191.96;106951;1272;24349;-81
2023/11/01 05:51:08;;;;;;;3.00;1.60;;;;;;;8.38;77.79;95194.50;106799;1272;25858;-80
2023/11/01 05:53:37;;;;;;;2.50;1.80;;;;;;;8.43;78.00;95194.95;107087;1273;22526;-79
2023/11/01 05:56:05;;;;;;;3.20;1.80;;;;;;;8.47;78.04;95195.77;107011;1272;24281;-80
2023/11/01 05:58:38;;;;;;;1.90;1.70;;;;;;;8.54;77.83;95196.19;107181;1273;22638;-80
2023/11/01 06:01:08;;;;;;;2.30;1.70;;;;;;;8.60;77.54;95208.89;107204;1273;22510;-81
2023/11/01 06:03:37;;;;;;;1.90;1.20;;;;;;;8.70;77.08;95206.95;107268;1273;25977;-79
2023/11/01 06:06:06;;;;;;;1.60;1.50;;;;;;;8.79;76.93;95214.33;107104;1273;22507;-80
2023/11/01 06:08:34;;;;;;;1.70;1.20;;;;;;;8.90;76.38;95220.63;107191;1273;23689;-79
2023/11/01 06:11:02;;;;;;;1.50;1.30;;;;;;;8.98;76.08;95228.02;107187;1273;23134;-78
2023/11/01 06:13:30;;;;;;;2.00;1.60;;;;;;;9.07;76.26;95236.98;107230;1272;25331;-79
2023/11/01 06:16:04;;;;;;;1.50;1.40;;;;;;;9.19;76.61;95240.80;107173;1273;22520;-78
2023/11/01 06:18:34;;;;;;;2.00;1.70;;;;;;;9.34;75.97;95245.95;107271;1272;22550;-78
2023/11/01 06:21:02;;;;;;;2.80;1.60;;;;;;;9.45;75.84;95245.04;107184;1272;22799;-81
2023/11/01 06:23:30;;;;;;;1.90;1.80;;;;;;;9.52;75.04;95249.13;107101;1273;25397;-80
2023/11/01 06:25:59;;;;;;;1.60;1.40;;;;;;;9.59;74.77;95252.48;107162;1273;22542;-79
2023/11/01 06:28:27;;;;;;;3.20;1.90;;;;;;;9.65;74.66;95253.41;107267;1273;25510;-80
2023/11/01 06:30:56;;;;;;;1.90;1.70;;;;;;;9.79;74.55;95253.30;107037;1273;22509;-82
2023/11/01 06:33:24;;;;;;;2.90;2.10;;;;;;;9.82;73.25;95256.39;107238;1273;24403;-80
2023/11/01 06:35:53;;;;;;;3.30;2.10;;;;;;;9.90;73.67;95261.15;106924;1273;22531;-80
2023/11/01 06:38:21;;;;;;;3.20;1.30;;;;;;;9.96;74.11;95257.70;106988;1273;23524;-80
2023/11/01 06:40:49;;;;;;;2.50;1.90;;;;;;;10.02;73.14;95264.58;107104;1273;22511;-79
2023/11/01 06:43:17;;;;;;;1.90;1.70;;;;;;;10.10;73.20;95261.43;107108;1273;22533;-79
2023/11/01 06:45:45;;;;;;;1.50;1.40;;;;;;;10.19;73.00;95259.29;107194;1273;25372;-79
2023/11/01 06:48:14;;;;;;;2.00;1.70;;;;;;;10.20;72.21;95263.30;107160;1273;22526;-81
2023/11/01 06:50:42;;;;;;;3.00;1.90;;;;;;;10.14;72.26;95269.77;106983;1273;22520;-80
2023/11/01 06:53:10;;;;;;;2.10;1.90;;;;;;;10.18;72.65;95272.48;106983;1273;22532;-79
2023/11/01 06:55:38;;;;;;;2.00;1.80;;;;;;;10.22;72.60;95271.52;107056;1273;22595;-80
2023/11/01 06:58:06;;;;;;;2.10;1.70;;;;;;;10.29;72.46;95277.18;107027;1273;22785;-79
2023/11/01 07:00:35;;;;;;;1.90;1.70;;;;;;;10.47;73.19;95285.94;106959;1273;22513;-79
2023/11/01 07:03:04;;;;;;;2.00;1.60;;;;;;;10.66;72.93;95291.29;107004;1273;24363;-79
2023/11/01 07:05:36;;;;;;;2.10;1.80;;;;;;;10.75;72.46;95301.98;106872;1273;24268;-79
2023/11/01 07:08:04;;;;;;;1.80;1.60;;;;;;;10.77;72.09;95305.79;107018;1273;25427;-79
2023/11/01 07:10:33;;;;;;;3.30;2.10;;;;;;;10.76;71.16;95314.61;107018;1273;25418;-80
2023/11/01 07:13:01;;;;;;;1.90;1.80;;;;;;;10.64;71.48;95320.00;107107;1273;22524;-80
2023/11/01 07:15:29;;;;;;;3.10;2.10;;;;;;;10.48;71.82;95331.28;107151;1273;22674;-80
2023/11/01 07:17:58;;;;;;;2.80;2.20;;;;;;;10.29;72.26;95337.48;107202;1273;24203;-80
2023/11/01 07:20:26;;;;;;;3.20;2.00;;;;;;;10.16;72.73;95342.30;107046;1273;24376;-79
2023/11/01 07:22:54;;;;;;;3.10;2.10;;;;;;;10.06;73.23;95343.58;107166;1273;22539;-81
2023/11/01 07:25:22;;;;;;;2.90;2.50;;;;;;;9.96;73.49;95342.02;106999;1273;25520;-80
2023/11/01 07:27:50;;;;;;;3.10;2.40;;;;;;;9.91;74.13;95350.37;106982;1273;25277;-80
2023/11/01 07:30:18;;;;;;;2.50;2.10;;;;;;;9.78;74.59;95353.09;106899;1273;22519;-80
2023/11/01 07:32:46;;;;;;;2.90;1.80;;;;;;;9.60;74.63;95353.44;107007;1273;25329;-79
2023/11/01 07:35:15;;;;;;;2.50;2.20;;;;;;;9.49;74.75;95358.90;106968;1273;24237;-77
2023/11/01 07:37:43;;;;;;;2.00;1.80;;;;;;;9.39;75.16;95361.19;107054;1273;25381;-79
2023/11/01 07:40:11;;;;;;;1.70;1.40;;;;;;;9.34;75.80;95365.14;106981;1250;22517;-78
2023/11/01 07:42:40;;;;;;;2.40;2.10;;;;;;;9.35;75.71;95363.55;106784;1273;22634;-81
2023/11/01 07:45:11;;;;;;;2.20;2.00;;;;;;;9.42;76.21;95360.96;106823;1273;23934;-79
2023/11/01 07:47:41;;;;;;;2.70;2.10;;;;;;;9.49;76.12;95365.58;106669;1273;24221;-80
2023/11/01 07:50:09;;;;;;;2.60;2.40;;;;;;;9.52;76.48;95364.30;107005;1261;25316;-81
2023/11/01 07:52:40;;;;;;;3.80;1.90;;;;;;;9.54;75.90;95368.81;107123;1273;24243;-78
2023/11/01 07:55:09;;;;;;;2.10;1.90;;;;;;;9.56;75.51;95373.71;107162;1273;23861;-82
2023/11/01 07:57:37;;;;;;;2.70;2.00;;;;;;;9.57;75.60;95376.86;107209;1273;22651;-79
2023/11/01 08:00:06;;;;;;;2.80;2.20;;;;;;;9.64;75.77;95381.98;107191;1273;25500;-79
2023/11/01 08:02:34;;;;;;;2.40;2.00;;;;;;;9.75;75.67;95381.95;107010;1273;22542;-79
2023/11/01 08:05:04;;;;;;;2.20;2.00;;;;;;;9.85;75.54;95388.61;107094;1273;22516;-80
2023/11/01 08:07:33;;;;;;;2.80;2.30;;;;;;;9.85;74.81;95393.35;106988;1273;23902;-80
2023/11/01 08:10:01;;;;;;;2.40;2.10;;;;;;;9.74;74.76;95398.66;107073;1273;23906;-79
2023/11/01 08:12:29;;;;;;;3.80;2.20;;;;;;;9.81;75.39;95405.39;107109;1273;25415;-79
2023/11/01 08:14:58;;;;;;;2.40;2.20;;;;;;;9.87;75.33;95406.32;107026;1273;22530;-79
2023/11/01 08:17:26;;;;;;;2.40;2.20;;;;;;;9.92;74.97;95416.41;106961;1270;22788;-80
2023/11/01 08:19:54;;;;;;;2.20;2.00;;;;;;;9.95;75.40;95415.84;106973;1273;25423;-79
2023/11/01 08:22:22;;;;;;;2.30;2.10;;;;;;;9.99;75.35;95419.11;107081;1273;24089;-80
2023/11/01 08:24:51;;;;;;;2.60;2.20;;;;;;;10.03;75.07;95416.75;106855;1273;26533;-79
2023/11/01 08:27:19;;;;;;;2.00;1.90;;;;;;;10.05;74.98;95420.76;107086;1273;23876;-79
2023/11/01 08:29:47;;;;;;;2.30;2.10;;;;;;;10.14;75.08;95422.33;106998;1273;22532;-79
2023/11/01 08:32:15;;;;;;;2.30;1.90;;;;;;;10.15;74.39;95429.52;107009;1273;22520;-81
2023/11/01 08:34:43;;;;;;;2.20;2.00;;;;;;;10.06;73.31;95434.95;106731;1273;22780;-78
2023/11/01 08:37:12;;;;;;;2.00;1.80;;;;;;;9.81;73.83;95432.59;106949;1273;24230;-78
2023/11/01 08:39:40;;;;;;;2.40;2.20;;;;;;;9.70;74.38;95430.53;106974;1273;22634;-79
2023/11/01 08:42:09;;;;;;;2.00;1.80;;;;;;;9.70;74.75;95425.41;106728;1273;26685;-79
2023/11/01 08:44:38;;;;;;;1.70;1.50;;;;;;;9.76;74.93;95423.21;106965;1273;24216;-79
2023/11/01 08:47:06;;;;;;;3.70;2.10;;;;;;;9.91;74.52;95426.80;106970;1273;22524;-79
2023/11/01 08:49:37;;;;;;;2.90;1.80;;;;;;;10.23;74.58;95432.52;107059;1273;22524;-81
2023/11/01 08:52:05;;;;;;;2.00;1.80;;;;;;;10.46;74.32;95436.13;106922;1273;22527;-80
2023/11/01 08:54:33;;;;;;;2.30;2.00;;;;;;;10.73;72.90;95441.70;106841;1273;23454;-80
2023/11/01 08:57:02;;;;;;;2.00;1.80;;;;;;;10.96;73.16;95437.52;106823;1273;26535;-79
2023/11/01 08:59:30;;;;;;;1.80;1.70;;;;;;;11.31;72.23;95442.52;107019;1273;24249;-79
2023/11/01 09:01:58;;;;;;;1.90;1.70;;;;;;;11.64;70.86;95441.17;107002;1273;22539;-78
2023/11/01 09:04:40;;;;;;;1.80;1.70;;;;;;;11.66;69.10;95442.54;106789;1273;25400;-81
2023/11/01 09:07:09;;;;;;;2.50;1.60;;;;;;;11.71;69.22;95443.64;107016;1273;22586;-78
2023/11/01 09:09:37;;;;;;;54.00;26.30;;;;;;;11.88;70.30;95443.93;107018;1273;25363;-78
2023/11/01 09:12:06;;;;;;;2.60;2.00;;;;;;;12.05;68.08;95448.95;107065;1273;22646;-78
2023/11/01 09:14:35;;;;;;;2.00;1.80;;;;;;;12.21;68.21;95445.00;107169;1273;24391;-79
2023/11/01 09:17:04;;;;;;;2.00;1.30;;;;;;;12.25;67.25;95444.89;106957;1273;25362;-79
2023/11/01 09:19:32;;;;;;;4.70;1.50;;;;;;;12.34;66.53;95442.17;106986;1273;22542;-79
2023/11/01 09:22:01;;;;;;;1.80;1.20;;;;;;;12.51;66.59;95436.77;106981;1273;22595;-78
2023/11/01 09:24:29;;;;;;;4.50;3.20;;;;;;;12.66;65.71;95431.02;106933;1273;22582;-78
2023/11/01 09:26:57;;;;;;;1.20;1.10;;;;;;;12.94;65.99;95423.14;106833;1273;25226;-81
2023/11/01 09:29:26;;;;;;;1.30;1.20;;;;;;;12.79;63.37;95417.59;107008;1272;22523;-79
2023/11/01 09:31:54;;;;;;;1.10;1.00;;;;;;;12.46;64.28;95417.34;106981;1273;22659;-79
2023/11/01 09:34:25;;;;;;;1.20;1.10;;;;;;;12.42;64.25;95418.49;106954;1273;24276;-79
2023/11/01 09:36:53;;;;;;;1.10;0.80;;;;;;;12.36;63.54;95424.83;107045;1273;24222;-80
2023/11/01 09:39:21;;;;;;;1.00;1.00;;;;;;;12.24;63.56;95418.29;107075;1273;25293;-79
2023/11/01 09:41:55;;;;;;;1.10;1.00;;;;;;;12.03;64.27;95419.21;106975;1272;25297;-79
2023/11/01 09:44:23;;;;;;;2.40;2.00;;;;;;;11.87;64.48;95424.03;107042;1272;23161;-80
2023/11/01 09:46:52;;;;;;;1.40;1.30;;;;;;;11.79;65.22;95427.23;106984;1273;22633;-80
2023/11/01 09:49:20;;;;;;;0.80;0.80;;;;;;;11.91;65.67;95426.94;106975;1273;23094;-81
2023/11/01 09:51:49;;;;;;;0.90;0.80;;;;;;;12.04;64.45;95422.36;107002;1273;22518;-80
2023/11/01 09:54:17;;;;;;;0.60;0.60;;;;;;;12.10;64.05;95425.37;106831;1263;22517;-80
2023/11/01 09:56:47;;;;;;;0.80;0.80;;;;;;;11.99;63.81;95427.09;106988;1273;22651;-80
2023/11/01 09:59:15;;;;;;;0.90;0.80;;;;;;;12.00;64.41;95426.00;106834;1273;24434;-78
2023/11/01 10:01:44;;;;;;;2.50;0.60;;;;;;;12.37;63.79;95420.56;106938;1273;25299;-80
2023/11/01 10:04:12;;;;;;;0.60;0.60;;;;;;;12.80;63.15;95416.32;106800;1273;22517;-80
2023/11/01 10:06:43;;;;;;;0.80;0.80;;;;;;;13.23;61.18;95411.48;106766;1273;22471;-77
2023/11/01 10:09:13;;;;;;;0.70;0.70;;;;;;;13.55;59.59;95412.77;106836;1273;24209;-78
2023/11/01 10:11:45;;;;;;;2.30;0.90;;;;;;;13.85;59.09;95413.52;106984;1273;24262;-80
2023/11/01 10:14:36;;;;;;;0.80;0.80;;;;;;;14.21;57.63;95408.88;107008;1273;25316;-80
2023/11/01 10:17:05;;;;;;;0.70;0.60;;;;;;;14.64;58.09;95389.13;107037;1273;23887;-79
2023/11/01 10:19:33;;;;;;;4.20;1.10;;;;;;;15.11;55.99;95389.60;107168;1273;22530;-80
2023/11/01 10:22:02;;;;;;;2.90;0.80;;;;;;;15.32;54.21;95388.45;107087;1273;22529;-78
2023/11/01 10:24:30;;;;;;;0.60;0.60;;;;;;;15.24;53.50;95390.48;106848;1273;24379;-81
2023/11/01 10:26:58;;;;;;;1.90;1.80;;;;;;;15.46;53.21;95384.48;107000;1273;24235;-78
2023/11/01 10:29:27;;;;;;;0.70;0.60;;;;;;;15.30;52.84;95390.10;107004;1273;24043;-81
2023/11/01 10:31:58;;;;;;;1.30;0.50;;;;;;;15.41;52.92;95393.38;107046;1273;22569;-79
2023/11/01 10:34:28;;;;;;;0.70;0.60;;;;;;;15.56;52.37;95390.80;106729;1273;24393;-82
2023/11/01 10:36:58;;;;;;;0.50;0.50;;;;;;;15.49;52.41;95395.17;107073;1273;22793;-79
2023/11/01 10:39:26;;;;;;;0.90;0.70;;;;;;;15.67;52.43;95389.13;107043;1273;23908;-79
2023/11/01 10:41:55;;;;;;;1.80;1.00;;;;;;;15.89;52.05;95383.23;106824;1273;24360;-80
2023/11/01 10:44:25;;;;;;;1.80;1.20;;;;;;;16.20;50.94;95392.03;106729;1272;22530;-80
2023/11/01 10:46:55;;;;;;;1.10;0.70;;;;;;;16.46;50.70;95392.29;107078;1273;22539;-79
2023/11/01 10:49:25;;;;;;;1.80;0.70;;;;;;;16.64;49.24;95397.31;107053;1273;25414;-80
2023/11/01 10:51:54;;;;;;;0.50;0.50;;;;;;;16.68;49.08;95400.86;107008;1273;22526;-79
2023/11/01 10:54:25;;;;;;;0.70;0.60;;;;;;;16.54;49.18;95394.94;107020;1272;22640;-80
2023/11/01 10:56:53;;;;;;;0.50;0.50;;;;;;;16.95;48.90;95392.02;107069;1258;25396;-79
2023/11/01 10:59:31;;;;;;;0.60;0.60;;;;;;;17.31;48.64;95389.95;107062;1272;25527;-79
2023/11/01 11:02:06;;;;;;;1.00;0.50;;;;;;;17.78;47.82;95401.20;107050;1273;25402;-80
2023/11/01 11:04:51;;;;;;;0.40;0.40;;;;;;;17.99;45.90;95397.46;106957;1273;22927;-78
2023/11/01 11:07:25;;;;;;;0.60;0.60;;;;;;;17.78;45.83;95397.84;107014;1273;25493;-79
2023/11/01 11:10:21;;;;;;;1.10;0.40;;;;;;;17.26;46.49;95392.70;106835;1273;22531;-80
2023/11/01 11:13:08;;;;;;;0.70;0.70;;;;;;;16.41;47.81;95397.99;107006;1273;22524;-81
2023/11/01 11:15:50;;;;;;;1.80;0.40;;;;;;;15.62;49.58;95404.75;107064;1273;25293;-80
2023/11/01 11:18:21;;;;;;;0.60;0.60;;;;;;;14.96;51.35;95409.87;107079;1273;25440;-80
2023/11/01 11:20:58;;;;;;;0.50;0.50;;;;;;;14.94;52.07;95404.79;106890;1273;22672;-78
2023/11/01 11:23:31;;;;;;;0.80;0.60;;;;;;;15.36;51.03;95390.38;106979;1273;22521;-78
2023/11/01 11:26:01;;;;;;;0.50;0.50;;;;;;;15.09;51.53;95391.29;106942;1273;25414;-81
2023/11/01 11:28:37;;;;;;;1.80;0.50;;;;;;;14.60;52.53;95390.30;107133;1273;24315;-80
2023/11/01 11:31:20;;;;;;;0.60;0.60;;;;;;;14.15;53.74;95389.83;106984;1273;25376;-80
2023/11/01 11:33:48;;;;;;;0.50;0.50;;;;;;;14.26;54.25;95391.19;106987;1273;22514;-80
2023/11/01 11:36:23;;;;;;;0.80;0.80;;;;;;;14.41;53.69;95390.12;107048;1273;25287;-80
2023/11/01 11:38:56;;;;;;;1.60;0.60;;;;;;;14.51;53.96;95384.27;106874;1273;26080;-80